createdAt,value
2023-04-26T00:02:22.262Z,99830.76
2023-04-26T00:04:58.487Z,99841.06
2023-04-26T00:07:26.084Z,99848.93
2023-04-26T00:09:53.508Z,99870.58
2023-04-26T00:12:20.891Z,99877.73
2023-04-26T00:14:48.251Z,99891.87
2023-04-26T00:17:16.330Z,99903.12
2023-04-26T00:19:44.084Z,99919.80
2023-04-26T00:22:11.435Z,99934.98
2023-04-26T00:24:38.789Z,99950.67
2023-04-26T00:27:09.524Z,99963.70
2023-04-26T00:29:37.809Z,99973.91
2023-04-26T00:32:05.781Z,99987.40
2023-04-26T00:34:37.124Z,99994.33
2023-04-26T00:37:05.451Z,99999.45
2023-04-26T00:39:32.850Z,100008.92
2023-04-26T00:42:00.206Z,100013.08
2023-04-26T00:44:27.666Z,100018.32
2023-04-26T00:46:55.123Z,100040.73
2023-04-26T00:49:23.494Z,100040.27
2023-04-26T00:51:54.959Z,100034.97
2023-04-26T00:54:22.313Z,100042.70
2023-04-26T00:56:52.430Z,100049.89
2023-04-26T00:59:22.955Z,100053.35
2023-04-26T01:01:50.309Z,100050.85
2023-04-26T01:04:18.483Z,100048.02
2023-04-26T01:06:46.345Z,100056.46
2023-04-26T01:09:16.232Z,100056.83
2023-04-26T01:11:44.025Z,100056.29
2023-04-26T01:14:12.108Z,100059.31
2023-04-26T01:16:41.106Z,100065.25
2023-04-26T01:19:13.212Z,100053.17
2023-04-26T01:21:40.895Z,100051.45
2023-04-26T01:24:10.675Z,100013.13
2023-04-26T01:26:45.971Z,99985.67
2023-04-26T01:29:15.369Z,99982.02
2023-04-26T01:31:42.825Z,99987.80
2023-04-26T01:34:10.182Z,99991.52
2023-04-26T01:36:38.363Z,99990.60
2023-04-26T01:39:05.919Z,99986.75
2023-04-26T01:41:33.982Z,99987.69
2023-04-26T01:44:01.747Z,99986.49
2023-04-26T01:46:29.015Z,99989.63
2023-04-26T01:48:57.686Z,99989.32
2023-04-26T01:51:25.035Z,99993.83
2023-04-26T01:53:52.391Z,99999.13
2023-04-26T01:56:20.368Z,100002.02
2023-04-26T01:58:47.918Z,100009.85
2023-04-26T02:01:15.323Z,100007.05
2023-04-26T02:03:45.436Z,100003.48
2023-04-26T02:06:12.851Z,99998.52
2023-04-26T02:08:40.101Z,99998.80
2023-04-26T02:11:07.685Z,100000.46
2023-04-26T02:13:36.763Z,99994.95
2023-04-26T02:16:04.653Z,99991.24
2023-04-26T02:18:32.081Z,99986.80
2023-04-26T02:20:59.539Z,99997.91
2023-04-26T02:23:26.796Z,100006.23
2023-04-26T02:25:54.351Z,100014.79
2023-04-26T02:28:21.807Z,100016.27
2023-04-26T02:30:49.060Z,100025.63
2023-04-26T02:33:16.422Z,100021.64
2023-04-26T02:35:43.771Z,100016.81
2023-04-26T02:38:11.331Z,100016.13
2023-04-26T02:40:38.593Z,100015.65
2023-04-26T02:43:07.556Z,100015.70
2023-04-26T02:45:34.938Z,100015.08
2023-04-26T02:48:02.422Z,100008.05
2023-04-26T02:50:30.045Z,100003.98
2023-04-26T02:52:57.398Z,100002.80
2023-04-26T02:55:24.673Z,99997.16
2023-04-26T02:57:52.006Z,99991.25
2023-04-26T03:00:19.360Z,99987.73
2023-04-26T03:02:46.835Z,99987.40
2023-04-26T03:05:14.288Z,99983.45
2023-04-26T03:07:41.735Z,100016.10
2023-04-26T03:10:10.055Z,100013.67
2023-04-26T03:12:37.673Z,100013.18
2023-04-26T03:15:06.077Z,100008.77
2023-04-26T03:17:33.509Z,100003.13
2023-04-26T03:20:02.496Z,100004.33
2023-04-26T03:22:30.363Z,100001.80
2023-04-26T03:24:57.821Z,100001.66
2023-04-26T03:27:26.709Z,99991.79
2023-04-26T03:29:54.271Z,99987.20
2023-04-26T03:32:22.141Z,99980.77
2023-04-26T03:34:50.210Z,99979.77
2023-04-26T03:37:17.563Z,100014.91
2023-04-26T03:39:46.774Z,100012.00
2023-04-26T03:42:14.424Z,100037.40
2023-04-26T03:44:41.680Z,100029.21
2023-04-26T03:47:09.450Z,100018.21
2023-04-26T03:49:37.410Z,100001.46
2023-04-26T03:52:04.770Z,99995.80
2023-04-26T03:54:32.321Z,99991.92
2023-04-26T03:56:59.572Z,99985.89
2023-04-26T03:59:27.028Z,99978.23
2023-04-26T04:01:54.384Z,99975.45
2023-04-26T04:04:22.092Z,99973.45
2023-04-26T04:06:50.010Z,99971.11
2023-04-26T04:09:18.493Z,99966.42
2023-04-26T04:11:47.394Z,99961.45
2023-04-26T04:14:14.948Z,99949.47
2023-04-26T04:16:42.296Z,99937.91
2023-04-26T04:19:09.767Z,99921.09
2023-04-26T04:21:37.826Z,99910.44
2023-04-26T04:24:06.080Z,99888.41
2023-04-26T04:26:33.471Z,99876.34
2023-04-26T04:29:09.171Z,99869.84
2023-04-26T04:31:40.294Z,99855.50
2023-04-26T04:34:09.442Z,99851.89
2023-04-26T04:36:41.408Z,99847.92
2023-04-26T04:39:13.775Z,99843.71
2023-04-26T04:41:48.007Z,99837.73
2023-04-26T04:44:16.686Z,99832.16
2023-04-26T04:46:44.918Z,99831.52
2023-04-26T04:49:16.221Z,99831.70
2023-04-26T04:51:43.661Z,99831.41
2023-04-26T04:54:34.873Z,99834.84
2023-04-26T04:57:03.659Z,99838.40
2023-04-26T04:59:33.580Z,99842.11
2023-04-26T05:02:01.791Z,99853.77
2023-04-26T05:04:29.524Z,99869.52
2023-04-26T05:06:57.380Z,99896.30
2023-04-26T05:09:24.644Z,99920.34
2023-04-26T05:11:52.298Z,99955.80
2023-04-26T05:14:20.578Z,99986.02
2023-04-26T05:16:48.354Z,100027.20
2023-04-26T05:19:15.898Z,100062.63
2023-04-26T05:21:43.261Z,100075.17
2023-04-26T05:24:10.521Z,100091.89
2023-04-26T05:26:37.981Z,100116.52
2023-04-26T05:29:08.287Z,100131.40
2023-04-26T05:32:01.808Z,100080.34
2023-04-26T05:34:48.154Z,100019.65
2023-04-26T05:37:17.518Z,99964.14
2023-04-26T05:39:44.834Z,99907.35
2023-04-26T05:42:12.473Z,99866.44
2023-04-26T05:44:40.441Z,99826.86
2023-04-26T05:47:08.598Z,99772.62
2023-04-26T05:49:36.116Z,99726.70
2023-04-26T05:52:04.979Z,99673.24
2023-04-26T05:54:32.315Z,99647.48
2023-04-26T05:56:59.629Z,99627.90
2023-04-26T05:59:31.494Z,99607.13
2023-04-26T06:01:59.261Z,99584.11
2023-04-26T06:04:26.886Z,99543.16
2023-04-26T06:07:07.584Z,99504.20
2023-04-26T06:09:34.961Z,99489.00
2023-04-26T06:12:02.513Z,99449.23
2023-04-26T06:14:31.128Z,99367.68
2023-04-26T06:17:02.476Z,99301.73
2023-04-26T06:19:30.465Z,99268.16
2023-04-26T06:21:57.830Z,99243.92
2023-04-26T06:24:26.174Z,99186.84
2023-04-26T06:26:54.715Z,99124.93
2023-04-26T06:29:22.143Z,99087.08
2023-04-26T06:31:49.460Z,99033.13
2023-04-26T06:34:18.437Z,98951.67
2023-04-26T06:36:46.476Z,98798.59
2023-04-26T06:39:14.034Z,98739.90
2023-04-26T06:41:43.662Z,98737.89
2023-04-26T06:44:11.482Z,98734.96
2023-04-26T06:46:42.862Z,98747.34
2023-04-26T06:49:11.675Z,98747.36
2023-04-26T06:51:39.047Z,98761.38
2023-04-26T06:54:06.565Z,98755.27
2023-04-26T06:56:33.829Z,98754.16
2023-04-26T06:59:02.987Z,98779.83
2023-04-26T07:01:33.928Z,98807.41
2023-04-26T07:04:08.644Z,98828.73
2023-04-26T07:06:36.212Z,98819.69
2023-04-26T07:09:04.321Z,98821.90
2023-04-26T07:11:31.863Z,98806.20
2023-04-26T07:13:59.396Z,98798.09
2023-04-26T07:16:27.171Z,98819.58
2023-04-26T07:18:58.494Z,98842.80
2023-04-26T07:21:27.119Z,98841.41
2023-04-26T07:23:58.333Z,98834.25
2023-04-26T07:26:26.811Z,98863.92
2023-04-26T07:28:54.465Z,98899.53
2023-04-26T07:31:21.764Z,98928.44
2023-04-26T07:33:49.495Z,98930.34
2023-04-26T07:36:16.850Z,98942.33
2023-04-26T07:38:44.105Z,99018.17
2023-04-26T07:41:13.245Z,99068.80
2023-04-26T07:43:40.510Z,99080.14
2023-04-26T07:46:08.041Z,99087.90
2023-04-26T07:48:35.380Z,99082.12
2023-04-26T07:51:10.390Z,99089.75
2023-04-26T07:53:38.601Z,99094.61
2023-04-26T07:56:07.234Z,99121.13
2023-04-26T07:58:36.546Z,99096.05
2023-04-26T08:01:04.490Z,99083.61
2023-04-26T08:03:32.594Z,99101.98
2023-04-26T08:06:00.324Z,99116.69
2023-04-26T08:08:28.365Z,99106.55
2023-04-26T08:11:14.322Z,99106.08
2023-04-26T08:14:00.202Z,99143.21
2023-04-26T08:16:27.613Z,99157.35
2023-04-26T08:18:56.332Z,99187.43
2023-04-26T08:21:23.946Z,99214.13
2023-04-26T08:23:51.420Z,99219.33
2023-04-26T08:26:19.565Z,99245.86
2023-04-26T08:28:47.192Z,99260.15
2023-04-26T08:31:15.818Z,99261.77
2023-04-26T08:33:44.948Z,99295.63
2023-04-26T08:36:13.040Z,99336.27
2023-04-26T08:38:40.424Z,99348.61
2023-04-26T08:41:08.914Z,99373.30
2023-04-26T08:43:37.284Z,99381.09
2023-04-26T08:46:06.505Z,99401.29
2023-04-26T08:48:34.165Z,99416.02
2023-04-26T08:51:01.688Z,99421.28
2023-04-26T08:53:28.985Z,99426.66
2023-04-26T08:55:56.382Z,99422.89
2023-04-26T08:58:23.689Z,99432.59
2023-04-26T09:00:51.019Z,99422.95
2023-04-26T09:03:18.515Z,99412.17
2023-04-26T09:05:46.106Z,99412.64
2023-04-26T09:08:18.485Z,99423.42
2023-04-26T09:10:47.110Z,99424.61
2023-04-26T09:13:14.778Z,99436.48
2023-04-26T09:15:42.158Z,99421.58
2023-04-26T09:18:22.393Z,99403.63
2023-04-26T09:21:03.957Z,99398.45
2023-04-26T09:23:32.903Z,99393.02
2023-04-26T09:26:21.134Z,99399.55
2023-04-26T09:28:49.072Z,99407.69
2023-04-26T09:31:39.736Z,99401.95
2023-04-26T09:34:07.225Z,99409.63
2023-04-26T09:36:47.500Z,99408.70
2023-04-26T09:39:15.217Z,99408.95
2023-04-26T09:41:44.937Z,99413.68
2023-04-26T09:44:23.208Z,99407.68
2023-04-26T09:47:02.420Z,99400.19
2023-04-26T09:49:43.234Z,99421.00
2023-04-26T09:52:10.707Z,99442.45
2023-04-26T09:54:45.531Z,99453.35
2023-04-26T09:57:14.270Z,99453.17
2023-04-26T09:59:48.206Z,99452.23
2023-04-26T10:02:27.048Z,99449.94
2023-04-26T10:04:57.075Z,99455.97
2023-04-26T10:07:25.525Z,99452.37
2023-04-26T10:09:52.803Z,99441.48
2023-04-26T10:12:20.561Z,99435.77
2023-04-26T10:14:48.787Z,99431.62
2023-04-26T10:17:16.182Z,99433.86
2023-04-26T10:19:44.998Z,99441.86
2023-04-26T10:22:18.388Z,99436.05
2023-04-26T10:24:45.953Z,99446.48
2023-04-26T10:27:14.321Z,99438.08
2023-04-26T10:29:54.276Z,99433.38
2023-04-26T10:32:22.247Z,99426.61
2023-04-26T10:35:13.326Z,99431.17
2023-04-26T10:38:00.678Z,99441.71
2023-04-26T10:40:32.757Z,99447.71
2023-04-26T10:43:10.062Z,99441.20
2023-04-26T10:45:37.630Z,99437.98
2023-04-26T10:48:31.263Z,99438.98
2023-04-26T10:51:02.136Z,99439.59
2023-04-26T10:53:45.786Z,99438.91
2023-04-26T10:56:28.561Z,99431.80
2023-04-26T11:01:46.544Z,99431.64
2023-04-26T11:04:14.130Z,99431.46
2023-04-26T11:06:55.166Z,99422.55
2023-04-26T11:09:41.657Z,99427.71
2023-04-26T11:12:13.104Z,99422.58
2023-04-26T11:14:44.489Z,99419.84
2023-04-26T11:17:12.230Z,99416.65
2023-04-26T11:19:41.761Z,99409.54
2023-04-26T11:22:09.212Z,99400.26
2023-04-26T11:24:39.223Z,99398.21
2023-04-26T11:27:10.460Z,99391.06
2023-04-26T11:29:38.471Z,99402.90
2023-04-26T11:32:05.932Z,99406.22
2023-04-26T11:34:34.682Z,99403.66
2023-04-26T11:37:02.880Z,99402.66
2023-04-26T11:39:34.405Z,99397.57
2023-04-26T11:42:08.617Z,99380.85
2023-04-26T11:44:36.105Z,99383.02
2023-04-26T11:47:06.818Z,99388.83
2023-04-26T11:49:36.275Z,99381.87
2023-04-26T11:52:05.268Z,99383.98
2023-04-26T11:54:34.613Z,99386.52
2023-04-26T11:57:05.146Z,99393.42
2023-04-26T11:59:32.481Z,99387.31
2023-04-26T12:02:01.911Z,99391.87
2023-04-26T12:04:30.856Z,99383.75
2023-04-26T12:06:58.518Z,99386.08
2023-04-26T12:09:30.051Z,99378.38
2023-04-26T12:12:02.385Z,99378.27
2023-04-26T12:14:38.269Z,99366.41
2023-04-26T12:17:06.779Z,99363.06
2023-04-26T12:19:34.919Z,99364.30
2023-04-26T12:22:02.270Z,99360.62
2023-04-26T12:24:40.250Z,99361.09
2023-04-26T12:27:09.141Z,99360.52
2023-04-26T12:29:36.434Z,99363.33
2023-04-26T12:32:04.549Z,99369.00
2023-04-26T12:34:32.134Z,99375.52
2023-04-26T12:37:00.108Z,99369.89
2023-04-26T12:39:27.499Z,99363.54
2023-04-26T12:41:55.544Z,99365.05
2023-04-26T12:44:23.053Z,99368.23
2023-04-26T12:46:51.043Z,99369.12
2023-04-26T12:49:18.414Z,99372.67
2023-04-26T12:51:46.436Z,99380.95
2023-04-26T12:54:13.829Z,99392.13
2023-04-26T12:56:44.671Z,99401.75
2023-04-26T12:59:12.137Z,99398.59
2023-04-26T13:01:39.623Z,99392.26
2023-04-26T13:04:07.206Z,99386.34
2023-04-26T13:06:34.755Z,99388.98
2023-04-26T13:09:02.920Z,99383.55
2023-04-26T13:11:30.355Z,99382.20
2023-04-26T13:13:58.032Z,99381.05
2023-04-26T13:16:25.656Z,99380.32
2023-04-26T13:18:52.941Z,99376.95
2023-04-26T13:21:20.193Z,99375.34
2023-04-26T13:23:47.610Z,99367.48
2023-04-26T13:26:20.062Z,99359.40
2023-04-26T13:28:47.846Z,99358.62
2023-04-26T13:31:17.625Z,99351.40
2023-04-26T13:33:47.527Z,99342.91
2023-04-26T13:36:16.167Z,99347.14
2023-04-26T13:38:43.931Z,99340.89
2023-04-26T13:41:11.400Z,99346.23
2023-04-26T13:43:38.700Z,99352.02
2023-04-26T13:46:06.389Z,99353.33
2023-04-26T13:48:33.648Z,99357.25
2023-04-26T13:51:01.037Z,99361.95
2023-04-26T13:53:28.342Z,99362.54
2023-04-26T13:55:55.597Z,99369.12
2023-04-26T13:58:22.855Z,99367.73
2023-04-26T14:00:50.124Z,99367.52
2023-04-26T14:03:17.534Z,99373.10
2023-04-26T14:05:44.981Z,99373.94
2023-04-26T14:08:13.030Z,99381.85
2023-04-26T14:10:40.304Z,99380.85
2023-04-26T14:13:07.540Z,99379.58
2023-04-26T14:15:34.823Z,99381.67
2023-04-26T14:18:02.213Z,99380.31
2023-04-26T14:20:29.560Z,99378.37
2023-04-26T14:22:56.908Z,99374.67
2023-04-26T14:25:24.274Z,99373.77
2023-04-26T14:27:53.021Z,99374.36
2023-04-26T14:30:21.300Z,99374.76
2023-04-26T14:32:48.664Z,99374.20
2023-04-26T14:35:15.921Z,99379.40
2023-04-26T14:37:43.170Z,99380.44
2023-04-26T14:40:11.472Z,99378.77
2023-04-26T14:42:44.637Z,99380.39
2023-04-26T14:45:12.919Z,99376.49
2023-04-26T14:47:40.702Z,99380.43
2023-04-26T14:50:10.449Z,99377.94
2023-04-26T14:52:37.846Z,99373.50
2023-04-26T14:55:06.322Z,99375.99
2023-04-26T14:57:34.804Z,99375.91
2023-04-26T15:00:07.482Z,99375.84
2023-04-26T15:02:34.932Z,99374.09
2023-04-26T15:05:05.423Z,99366.35
2023-04-26T15:07:33.186Z,99366.55
2023-04-26T15:10:01.935Z,99367.14
2023-04-26T15:12:29.299Z,99364.64
2023-04-26T15:14:56.532Z,99365.77
2023-04-26T15:17:24.103Z,99365.38
2023-04-26T15:19:51.586Z,99364.55
2023-04-26T15:22:18.858Z,99362.23
2023-04-26T15:24:46.131Z,99355.05
2023-04-26T15:27:13.368Z,99357.80
2023-04-26T15:29:40.603Z,99352.75
2023-04-26T15:32:07.818Z,99353.31
2023-04-26T15:34:43.706Z,99349.85
2023-04-26T15:37:11.284Z,99348.71
2023-04-26T15:39:38.655Z,99344.35
2023-04-26T15:42:06.210Z,99337.10
2023-04-26T15:44:33.486Z,99326.20
2023-04-26T15:47:01.814Z,99307.90
2023-04-26T15:49:29.053Z,99280.79
2023-04-26T15:51:56.388Z,99253.48
2023-04-26T15:54:24.070Z,99241.46
2023-04-26T15:56:51.350Z,99223.66
2023-04-26T15:59:18.862Z,99200.02
2023-04-26T16:01:46.129Z,99174.64
2023-04-26T16:04:14.425Z,99155.03
2023-04-26T16:06:42.381Z,99141.33
2023-04-26T16:09:24.663Z,99138.77
2023-04-26T16:11:52.494Z,99117.41
2023-04-26T16:14:19.756Z,99109.70
2023-04-26T16:16:47.070Z,99103.36
2023-04-26T16:19:14.329Z,99084.79
2023-04-26T16:21:41.974Z,99071.21
2023-04-26T16:24:09.491Z,99060.04
2023-04-26T16:26:36.837Z,99047.08
2023-04-26T16:29:04.582Z,99039.59
2023-04-26T16:31:32.656Z,99031.25
2023-04-26T16:33:59.996Z,99018.98
2023-04-26T16:36:27.687Z,99015.23
2023-04-26T16:38:55.408Z,99006.10
2023-04-26T16:41:23.484Z,98996.16
2023-04-26T16:43:52.995Z,98984.04
2023-04-26T16:46:20.379Z,98973.09
2023-04-26T16:48:47.768Z,98971.23
2023-04-26T16:51:15.038Z,98975.86
2023-04-26T16:53:42.717Z,98967.88
2023-04-26T16:56:10.525Z,98956.73
2023-04-26T16:58:38.030Z,98947.91
2023-04-26T17:01:05.489Z,98930.76
2023-04-26T17:03:33.074Z,98918.00
2023-04-26T17:06:00.505Z,98902.65
2023-04-26T17:08:27.816Z,98890.58
2023-04-26T17:10:55.064Z,98881.95
2023-04-26T17:13:22.528Z,98873.53
2023-04-26T17:15:50.039Z,98854.56
2023-04-26T17:18:17.306Z,98836.45
2023-04-26T17:20:44.638Z,98830.02
2023-04-26T17:23:12.003Z,98822.95
2023-04-26T17:25:39.208Z,98808.73
2023-04-26T17:28:06.691Z,98803.64
2023-04-26T17:30:33.984Z,98803.86
2023-04-26T17:33:01.441Z,98802.77
2023-04-26T17:35:28.777Z,98804.19
2023-04-26T17:37:56.325Z,98803.39
2023-04-26T17:40:23.636Z,98799.04
2023-04-26T17:42:50.878Z,98794.70
2023-04-26T17:45:18.128Z,98793.09
2023-04-26T17:47:46.262Z,98795.14
2023-04-26T17:50:13.996Z,98790.89
2023-04-26T17:52:41.243Z,98790.09
2023-04-26T17:55:10.192Z,98786.79
2023-04-26T17:57:56.349Z,98781.66
2023-04-26T18:00:42.219Z,98784.04
2023-04-26T18:03:09.727Z,98782.75
2023-04-26T18:05:37.107Z,98783.91
2023-04-26T18:08:07.219Z,98791.96
2023-04-26T18:10:34.482Z,98788.52
2023-04-26T18:13:02.067Z,98789.29
2023-04-26T18:15:29.346Z,98790.56
2023-04-26T18:17:56.704Z,98792.50
2023-04-26T18:20:24.267Z,98787.27
2023-04-26T18:22:51.812Z,98782.56
2023-04-26T18:25:19.086Z,98776.00
2023-04-26T18:27:47.099Z,98769.80
2023-04-26T18:30:14.456Z,98764.23
2023-04-26T18:32:41.802Z,98755.92
2023-04-26T18:35:09.791Z,98752.17
2023-04-26T18:37:38.174Z,98751.36
2023-04-26T18:40:07.389Z,98745.27
2023-04-26T18:42:34.725Z,98740.63
2023-04-26T18:45:02.381Z,98739.06
2023-04-26T18:47:29.645Z,98732.36
2023-04-26T18:49:57.135Z,98721.30
2023-04-26T18:52:24.527Z,98711.00
2023-04-26T18:54:51.734Z,98705.98
2023-04-26T18:57:22.445Z,98697.04
2023-04-26T18:59:49.831Z,98697.82
2023-04-26T19:02:17.138Z,98688.35
2023-04-26T19:04:44.591Z,98681.29
2023-04-26T19:07:11.898Z,98676.68
2023-04-26T19:09:50.316Z,98668.66
2023-04-26T19:12:20.737Z,98668.21
2023-04-26T19:14:48.071Z,98668.89
2023-04-26T19:17:15.338Z,98666.88
2023-04-26T19:19:42.644Z,98659.79
2023-04-26T19:22:09.878Z,98658.24
2023-04-26T19:24:37.105Z,98658.30
2023-04-26T19:27:04.947Z,98654.11
2023-04-26T19:29:32.195Z,98649.73
2023-04-26T19:32:00.444Z,98652.27
2023-04-26T19:34:28.160Z,98655.45
2023-04-26T19:36:55.687Z,98652.14
2023-04-26T19:39:23.836Z,98648.62
2023-04-26T19:41:51.277Z,98650.13
2023-04-26T19:44:18.648Z,98650.92
2023-04-26T19:46:46.321Z,98647.02
2023-04-26T19:49:13.585Z,98642.09
2023-04-26T19:51:40.929Z,98639.59
2023-04-26T19:54:08.178Z,98640.05
2023-04-26T19:56:35.399Z,98639.77
2023-04-26T19:59:02.653Z,98640.59
2023-04-26T20:01:30.095Z,98640.15
2023-04-26T20:03:57.859Z,98635.52
2023-04-26T20:06:25.204Z,98630.27
2023-04-26T20:08:52.480Z,98627.32
2023-04-26T20:11:20.010Z,98633.00
2023-04-26T20:13:47.333Z,98627.91
2023-04-26T20:16:14.623Z,98625.36
2023-04-26T20:18:41.920Z,98625.15
2023-04-26T20:21:09.178Z,98626.36
2023-04-26T20:23:36.459Z,98633.83
2023-04-26T20:26:04.109Z,98638.15
2023-04-26T20:28:31.545Z,98645.62
2023-04-26T20:30:58.883Z,98646.27
2023-04-26T20:33:26.119Z,98652.25
2023-04-26T20:35:53.715Z,98660.98
2023-04-26T20:38:21.471Z,98669.44
2023-04-26T20:40:49.067Z,98677.40
2023-04-26T20:43:16.443Z,98686.63
2023-04-26T20:45:43.714Z,98699.30
2023-04-26T20:48:10.963Z,98706.67
2023-04-26T20:50:38.222Z,98713.77
2023-04-26T20:53:05.722Z,98721.52
2023-04-26T21:00:33.710Z,98762.45
2023-04-26T21:03:01.213Z,98774.54
2023-04-26T21:05:28.691Z,98779.66
2023-04-26T21:07:56.771Z,98783.80
2023-04-26T21:10:42.715Z,98785.91
2023-04-26T21:13:10.130Z,98784.80
2023-04-26T21:15:37.631Z,98785.33
2023-04-26T21:18:05.433Z,98784.36
2023-04-26T21:20:53.250Z,98785.04
2023-04-26T21:23:54.274Z,98778.42
2023-04-26T21:26:34.991Z,98776.25
2023-04-26T21:29:04.248Z,98780.49
2023-04-26T21:31:31.770Z,98779.95
2023-04-26T21:33:59.196Z,98779.00
2023-04-26T21:36:27.023Z,98781.29
2023-04-26T21:38:54.322Z,98785.29
2023-04-26T21:41:21.674Z,98790.06
2023-04-26T21:43:50.431Z,98784.61
2023-04-26T21:46:17.703Z,98785.41
2023-04-26T21:48:45.522Z,98787.33
2023-04-26T21:51:12.782Z,98787.83
2023-04-26T21:53:43.385Z,98784.08
2023-04-26T21:56:10.973Z,98781.48
2023-04-26T21:58:38.292Z,98777.66
2023-04-26T22:01:10.385Z,98783.23
2023-04-26T22:03:38.001Z,98784.95
2023-04-26T22:06:07.644Z,98778.09
2023-04-26T22:08:35.109Z,98778.84
2023-04-26T22:11:03.257Z,98773.27
2023-04-26T22:13:31.078Z,98773.48
2023-04-26T22:15:58.393Z,98770.96
2023-04-26T22:18:26.727Z,98765.28
2023-04-26T22:20:54.269Z,98766.14
2023-04-26T22:23:21.604Z,98769.30
2023-04-26T22:25:48.875Z,98766.59
2023-04-26T22:28:16.731Z,98765.73
2023-04-26T22:30:44.034Z,98760.71
2023-04-26T22:33:12.549Z,98761.25
2023-04-26T22:35:39.885Z,98759.80
2023-04-26T22:38:07.133Z,98763.80
2023-04-26T22:40:34.430Z,98774.59
2023-04-26T22:43:02.199Z,98784.77
2023-04-26T22:45:29.459Z,98796.70
2023-04-26T22:47:56.808Z,98805.84
2023-04-26T22:50:24.175Z,98806.45
2023-04-26T22:52:51.572Z,98812.98
2023-04-26T22:55:18.911Z,98829.34
2023-04-26T22:57:46.773Z,98826.64
2023-04-26T23:00:14.887Z,98831.48
2023-04-26T23:02:42.286Z,98835.57
2023-04-26T23:05:10.464Z,98842.63
2023-04-26T23:07:38.768Z,98840.13
2023-04-26T23:10:06.464Z,98839.39
2023-04-26T23:12:33.819Z,98842.25
2023-04-26T23:15:01.675Z,98852.80
2023-04-26T23:17:28.980Z,98855.80
2023-04-26T23:19:56.822Z,98853.05
2023-04-26T23:22:24.097Z,98860.83
2023-04-26T23:24:51.827Z,98868.73
2023-04-26T23:27:21.106Z,98873.95
2023-04-26T23:29:50.210Z,98875.70
2023-04-26T23:32:17.478Z,98877.95
2023-04-26T23:34:44.762Z,98883.48
2023-04-26T23:37:12.009Z,98888.20
2023-04-26T23:39:39.295Z,98898.29
2023-04-26T23:42:06.882Z,98901.15
2023-04-26T23:44:34.135Z,98914.49
2023-04-26T23:47:01.373Z,98949.40
2023-04-26T23:49:28.672Z,98958.98
2023-04-26T23:51:56.136Z,98966.57
2023-04-26T23:54:23.421Z,98970.82
2023-04-26T23:56:51.039Z,98977.82
2023-04-26T23:59:18.550Z,98980.78
